createdAt,value
2022-12-16T00:00:03.385Z,60
2022-12-16T00:20:03.063Z,60
2022-12-16T00:40:03.198Z,60
2022-12-16T01:00:02.718Z,60
2022-12-16T01:20:02.834Z,60
2022-12-16T01:40:03.395Z,60
2022-12-16T02:00:02.792Z,60
2022-12-16T02:20:02.830Z,60
2022-12-16T02:40:03.225Z,60
2022-12-16T03:00:02.860Z,60
2022-12-16T03:20:02.530Z,60
2022-12-16T03:40:03.058Z,59
2022-12-16T04:00:02.492Z,59
2022-12-16T04:20:03.229Z,59
2022-12-16T04:40:02.641Z,59
2022-12-16T05:00:03.019Z,59
2022-12-16T05:20:02.771Z,59
2022-12-16T05:40:03.278Z,59
2022-12-16T06:00:02.829Z,59
2022-12-16T06:20:02.959Z,59
2022-12-16T06:40:02.561Z,59
2022-12-16T07:00:04.135Z,59
2022-12-16T07:20:02.893Z,59
2022-12-16T07:40:02.401Z,59
2022-12-16T08:00:03.506Z,60
2022-12-16T08:20:03.109Z,60
2022-12-16T08:40:35.903Z,60
2022-12-16T09:00:03.950Z,61
2022-12-16T09:20:02.674Z,63
2022-12-16T09:40:03.466Z,65
2022-12-16T10:00:03.692Z,66
2022-12-16T10:20:09.759Z,66
2022-12-16T10:40:03.066Z,66
2022-12-16T11:00:02.755Z,66
2022-12-16T11:20:02.571Z,66
2022-12-16T11:40:03.182Z,66
2022-12-16T12:00:02.637Z,67
2022-12-16T12:20:02.561Z,67
2022-12-16T12:40:03.069Z,67
2022-12-16T13:00:03.088Z,67
2022-12-16T13:20:03.336Z,67
2022-12-16T13:40:02.801Z,67
2022-12-16T14:00:03.552Z,68
2022-12-16T14:20:03.151Z,68
2022-12-16T14:40:02.664Z,68
2022-12-16T15:00:03.340Z,68
2022-12-16T15:20:04.241Z,68
2022-12-16T15:40:02.939Z,69
2022-12-16T16:00:02.549Z,69
2022-12-16T16:20:04.303Z,69
2022-12-16T16:40:03.281Z,69
2022-12-16T17:00:02.731Z,69
2022-12-16T17:20:07.991Z,69
2022-12-16T17:40:02.943Z,69
2022-12-16T18:00:02.377Z,69
2022-12-16T18:20:04.536Z,69
2022-12-16T18:40:03.103Z,69
2022-12-16T19:00:02.583Z,69
2022-12-16T19:20:02.624Z,70
2022-12-16T19:40:03.363Z,70
2022-12-16T20:00:03.858Z,70
2022-12-16T20:20:02.734Z,70
2022-12-16T20:40:03.266Z,70
2022-12-16T21:00:06.560Z,70
2022-12-16T21:20:03.402Z,70
2022-12-16T21:40:03.182Z,71
2022-12-16T22:00:02.762Z,71
2022-12-16T22:20:02.697Z,71
2022-12-16T22:40:03.243Z,71
2022-12-16T23:00:02.632Z,71
2022-12-16T23:20:02.586Z,71
2022-12-16T23:40:03.330Z,72
